Terminal Aerodrome Forecast
Issued by NWS Cleveland, OH

Home | Current Version | Previous Version | Graphics & Text | Print | Product List | Glossary On
Versions: 1 2 3 4 5 6 7 8 9 10 11 12 13 14 15 16 17 18 19 20 21 22
000
FTUS41 KCLE 172100 AAA
TAFCAK
TAF AMD
KCAK 172144Z 1722/1818 25014G22KT P6SM BKN070 OVC250
     FM180300 26013G20KT P6SM VCSH BKN025 OVC050
     FM180600 27013G25KT 6SM -SHRA BR OVC015
     FM181500 29011G20KT P6SM VCSH BKN020=

USA.gov is the U.S. government's official web portal to all federal, state and local government web resources and services.